sensor_id;sensor_type;location;lat;lon;timestamp;P1;durP1;ratioP1;P2;durP2;ratioP2
10142;SDS011;5112;54.088;13.446;2023-03-03T00:09:01;24.00;;;15.90;;
10142;SDS011;5112;54.088;13.446;2023-03-03T00:19:06;21.90;;;14.43;;
10142;SDS011;5112;54.088;13.446;2023-03-03T00:29:22;21.47;;;14.97;;
10142;SDS011;5112;54.088;13.446;2023-03-03T00:39:32;17.63;;;14.23;;
10142;SDS011;5112;54.088;13.446;2023-03-03T00:49:36;23.83;;;14.67;;
10142;SDS011;5112;54.088;13.446;2023-03-03T00:59:39;19.20;;;13.47;;
10142;SDS011;5112;54.088;13.446;2023-03-03T01:09:41;17.52;;;13.60;;
10142;SDS011;5112;54.088;13.446;2023-03-03T01:19:44;22.70;;;14.57;;
10142;SDS011;5112;54.088;13.446;2023-03-03T01:29:45;21.57;;;14.47;;
10142;SDS011;5112;54.088;13.446;2023-03-03T01:39:49;19.20;;;13.50;;
10142;SDS011;5112;54.088;13.446;2023-03-03T01:49:53;16.73;;;10.23;;
10142;SDS011;5112;54.088;13.446;2023-03-03T01:59:59;22.02;;;14.52;;
10142;SDS011;5112;54.088;13.446;2023-03-03T02:10:05;21.73;;;11.60;;
10142;SDS011;5112;54.088;13.446;2023-03-03T02:20:13;18.77;;;11.80;;
10142;SDS011;5112;54.088;13.446;2023-03-03T02:30:23;23.40;;;11.30;;
10142;SDS011;5112;54.088;13.446;2023-03-03T02:40:25;23.83;;;12.65;;
10142;SDS011;5112;54.088;13.446;2023-03-03T02:50:32;23.20;;;12.07;;
10142;SDS011;5112;54.088;13.446;2023-03-03T03:00:34;23.20;;;12.13;;
10142;SDS011;5112;54.088;13.446;2023-03-03T03:10:37;24.70;;;13.20;;
10142;SDS011;5112;54.088;13.446;2023-03-03T03:20:39;25.57;;;13.07;;
10142;SDS011;5112;54.088;13.446;2023-03-03T03:30:42;24.00;;;12.23;;
10142;SDS011;5112;54.088;13.446;2023-03-03T03:40:44;27.30;;;13.33;;
10142;SDS011;5112;54.088;13.446;2023-03-03T03:50:47;27.00;;;13.70;;
10142;SDS011;5112;54.088;13.446;2023-03-03T04:00:49;32.77;;;15.97;;
10142;SDS011;5112;54.088;13.446;2023-03-03T04:10:52;31.70;;;16.73;;
10142;SDS011;5112;54.088;13.446;2023-03-03T04:20:54;35.33;;;16.87;;
10142;SDS011;5112;54.088;13.446;2023-03-03T04:30:57;38.07;;;16.83;;
10142;SDS011;5112;54.088;13.446;2023-03-03T04:40:59;42.53;;;17.73;;
10142;SDS011;5112;54.088;13.446;2023-03-03T04:51:02;36.50;;;17.53;;
10142;SDS011;5112;54.088;13.446;2023-03-03T05:01:04;40.97;;;19.00;;
10142;SDS011;5112;54.088;13.446;2023-03-03T05:11:07;39.33;;;18.30;;
10142;SDS011;5112;54.088;13.446;2023-03-03T05:21:09;53.83;;;20.27;;
10142;SDS011;5112;54.088;13.446;2023-03-03T05:31:12;37.33;;;17.23;;
10142;SDS011;5112;54.088;13.446;2023-03-03T05:41:13;40.43;;;19.23;;
10142;SDS011;5112;54.088;13.446;2023-03-03T05:51:16;39.37;;;19.17;;
10142;SDS011;5112;54.088;13.446;2023-03-03T06:01:18;43.57;;;18.97;;
10142;SDS011;5112;54.088;13.446;2023-03-03T06:11:21;38.83;;;19.67;;
10142;SDS011;5112;54.088;13.446;2023-03-03T06:21:23;36.80;;;19.77;;
10142;SDS011;5112;54.088;13.446;2023-03-03T06:31:26;39.37;;;19.33;;
10142;SDS011;5112;54.088;13.446;2023-03-03T06:41:28;40.70;;;18.47;;
10142;SDS011;5112;54.088;13.446;2023-03-03T06:51:32;52.43;;;20.67;;
10142;SDS011;5112;54.088;13.446;2023-03-03T07:01:36;40.07;;;19.43;;
10142;SDS011;5112;54.088;13.446;2023-03-03T07:11:39;46.53;;;19.13;;
10142;SDS011;5112;54.088;13.446;2023-03-03T07:21:41;32.17;;;17.37;;
10142;SDS011;5112;54.088;13.446;2023-03-03T07:31:45;31.57;;;16.30;;
10142;SDS011;5112;54.088;13.446;2023-03-03T07:41:48;34.07;;;16.80;;
10142;SDS011;5112;54.088;13.446;2023-03-03T07:51:53;26.87;;;14.13;;
10142;SDS011;5112;54.088;13.446;2023-03-03T08:01:56;32.17;;;17.33;;
10142;SDS011;5112;54.088;13.446;2023-03-03T08:12:04;28.63;;;14.63;;
10142;SDS011;5112;54.088;13.446;2023-03-03T08:22:23;26.50;;;13.67;;
10142;SDS011;5112;54.088;13.446;2023-03-03T08:32:31;23.33;;;14.37;;
10142;SDS011;5112;54.088;13.446;2023-03-03T08:42:33;21.63;;;13.70;;
10142;SDS011;5112;54.088;13.446;2023-03-03T08:52:36;19.87;;;13.17;;
10142;SDS011;5112;54.088;13.446;2023-03-03T09:02:37;24.07;;;13.90;;
10142;SDS011;5112;54.088;13.446;2023-03-03T09:12:42;20.57;;;13.23;;
10142;SDS011;5112;54.088;13.446;2023-03-03T09:22:47;21.47;;;14.53;;
10142;SDS011;5112;54.088;13.446;2023-03-03T09:32:51;19.57;;;14.37;;
10142;SDS011;5112;54.088;13.446;2023-03-03T09:42:58;20.83;;;14.30;;
10142;SDS011;5112;54.088;13.446;2023-03-03T09:53:08;18.03;;;12.43;;
10142;SDS011;5112;54.088;13.446;2023-03-03T10:03:36;16.60;;;12.53;;
10142;SDS011;5112;54.088;13.446;2023-03-03T10:13:58;15.23;;;11.97;;
10142;SDS011;5112;54.088;13.446;2023-03-03T10:24:26;16.23;;;12.20;;
10142;SDS011;5112;54.088;13.446;2023-03-03T10:34:38;17.13;;;12.53;;
10142;SDS011;5112;54.088;13.446;2023-03-03T10:44:58;15.73;;;11.83;;
10142;SDS011;5112;54.088;13.446;2023-03-03T10:55:25;15.13;;;12.30;;
10142;SDS011;5112;54.088;13.446;2023-03-03T11:05:34;18.17;;;13.50;;
10142;SDS011;5112;54.088;13.446;2023-03-03T11:15:46;19.00;;;14.43;;
10142;SDS011;5112;54.088;13.446;2023-03-03T11:26:04;16.00;;;12.77;;
10142;SDS011;5112;54.088;13.446;2023-03-03T11:36:13;16.53;;;12.67;;
10142;SDS011;5112;54.088;13.446;2023-03-03T11:46:21;16.20;;;12.10;;
10142;SDS011;5112;54.088;13.446;2023-03-03T11:56:29;13.77;;;11.23;;
10142;SDS011;5112;54.088;13.446;2023-03-03T12:06:38;14.87;;;11.50;;
10142;SDS011;5112;54.088;13.446;2023-03-03T12:16:52;12.13;;;10.33;;
10142;SDS011;5112;54.088;13.446;2023-03-03T12:26:59;11.93;;;9.90;;
10142;SDS011;5112;54.088;13.446;2023-03-03T12:37:17;11.60;;;9.20;;
10142;SDS011;5112;54.088;13.446;2023-03-03T12:47:26;11.17;;;8.70;;
10142;SDS011;5112;54.088;13.446;2023-03-03T12:57:34;9.97;;;8.47;;
10142;SDS011;5112;54.088;13.446;2023-03-03T13:07:44;9.77;;;6.13;;
10142;SDS011;5112;54.088;13.446;2023-03-03T13:17:56;5.63;;;5.03;;
10142;SDS011;5112;54.088;13.446;2023-03-03T13:28:12;6.37;;;4.97;;
10142;SDS011;5112;54.088;13.446;2023-03-03T13:38:24;7.53;;;5.57;;
10142;SDS011;5112;54.088;13.446;2023-03-03T13:59:09;5.90;;;3.80;;
10142;SDS011;5112;54.088;13.446;2023-03-03T14:09:27;4.77;;;3.60;;
10142;SDS011;5112;54.088;13.446;2023-03-03T14:19:45;4.60;;;4.20;;
10142;SDS011;5112;54.088;13.446;2023-03-03T14:29:48;6.23;;;4.37;;
10142;SDS011;5112;54.088;13.446;2023-03-03T14:40:00;5.90;;;4.77;;
10142;SDS011;5112;54.088;13.446;2023-03-03T14:50:26;6.17;;;4.93;;
10142;SDS011;5112;54.088;13.446;2023-03-03T15:00:33;11.27;;;7.47;;
10142;SDS011;5112;54.088;13.446;2023-03-03T15:10:35;10.67;;;7.97;;
10142;SDS011;5112;54.088;13.446;2023-03-03T15:20:41;9.33;;;8.43;;
10142;SDS011;5112;54.088;13.446;2023-03-03T15:30:46;8.27;;;7.40;;
10142;SDS011;5112;54.088;13.446;2023-03-03T15:40:56;8.57;;;7.40;;
10142;SDS011;5112;54.088;13.446;2023-03-03T15:51:10;7.07;;;5.60;;
10142;SDS011;5112;54.088;13.446;2023-03-03T16:01:24;10.43;;;6.40;;
10142;SDS011;5112;54.088;13.446;2023-03-03T16:11:31;9.87;;;7.53;;
10142;SDS011;5112;54.088;13.446;2023-03-03T16:21:47;12.07;;;7.17;;
10142;SDS011;5112;54.088;13.446;2023-03-03T16:32:00;4.97;;;4.27;;
10142;SDS011;5112;54.088;13.446;2023-03-03T16:42:12;4.97;;;4.00;;
10142;SDS011;5112;54.088;13.446;2023-03-03T16:52:22;5.33;;;4.50;;
10142;SDS011;5112;54.088;13.446;2023-03-03T17:13:40;5.63;;;5.10;;
10142;SDS011;5112;54.088;13.446;2023-03-03T17:23:57;6.50;;;5.37;;
10142;SDS011;5112;54.088;13.446;2023-03-03T17:34:09;8.23;;;6.90;;
10142;SDS011;5112;54.088;13.446;2023-03-03T17:44:22;10.33;;;9.23;;
10142;SDS011;5112;54.088;13.446;2023-03-03T17:54:36;9.50;;;8.53;;
10142;SDS011;5112;54.088;13.446;2023-03-03T18:25:54;7.60;;;6.80;;
10142;SDS011;5112;54.088;13.446;2023-03-03T18:36:06;7.37;;;5.37;;
10142;SDS011;5112;54.088;13.446;2023-03-03T18:56:48;7.87;;;5.67;;
10142;SDS011;5112;54.088;13.446;2023-03-03T19:07:12;7.40;;;5.00;;
10142;SDS011;5112;54.088;13.446;2023-03-03T19:27:55;6.97;;;6.27;;
10142;SDS011;5112;54.088;13.446;2023-03-03T19:38:10;8.17;;;6.00;;
10142;SDS011;5112;54.088;13.446;2023-03-03T19:48:24;6.17;;;5.30;;
10142;SDS011;5112;54.088;13.446;2023-03-03T19:58:38;7.13;;;5.33;;
10142;SDS011;5112;54.088;13.446;2023-03-03T20:08:48;8.43;;;4.63;;
10142;SDS011;5112;54.088;13.446;2023-03-03T20:19:03;9.57;;;4.33;;
10142;SDS011;5112;54.088;13.446;2023-03-03T20:39:57;13.83;;;5.33;;
10142;SDS011;5112;54.088;13.446;2023-03-03T20:50:08;9.73;;;5.17;;
10142;SDS011;5112;54.088;13.446;2023-03-03T21:00:20;10.23;;;4.97;;
10142;SDS011;5112;54.088;13.446;2023-03-03T21:10:29;13.73;;;5.73;;
10142;SDS011;5112;54.088;13.446;2023-03-03T21:20:34;15.13;;;5.50;;
10142;SDS011;5112;54.088;13.446;2023-03-03T21:41:05;13.33;;;5.67;;
10142;SDS011;5112;54.088;13.446;2023-03-03T21:51:07;10.90;;;5.53;;
10142;SDS011;5112;54.088;13.446;2023-03-03T22:01:10;23.53;;;5.90;;
10142;SDS011;5112;54.088;13.446;2023-03-03T22:11:12;17.43;;;6.47;;
10142;SDS011;5112;54.088;13.446;2023-03-03T22:21:15;17.03;;;5.33;;
10142;SDS011;5112;54.088;13.446;2023-03-03T22:31:17;20.00;;;5.17;;
10142;SDS011;5112;54.088;13.446;2023-03-03T22:41:21;17.17;;;5.63;;
10142;SDS011;5112;54.088;13.446;2023-03-03T22:51:22;11.80;;;5.80;;
10142;SDS011;5112;54.088;13.446;2023-03-03T23:01:26;19.33;;;6.27;;
10142;SDS011;5112;54.088;13.446;2023-03-03T23:11:28;17.37;;;5.50;;
10142;SDS011;5112;54.088;13.446;2023-03-03T23:21:31;14.90;;;5.30;;
10142;SDS011;5112;54.088;13.446;2023-03-03T23:31:32;13.43;;;5.90;;
10142;SDS011;5112;54.088;13.446;2023-03-03T23:41:35;17.03;;;5.00;;
10142;SDS011;5112;54.088;13.446;2023-03-03T23:51:37;15.27;;;4.67;;
